Lock Haven, PA

2:56 AM EDT on May 07, 2015 (GMT -0400)
Penn Valley | | Change Station
CLOSE
Current Station
Airport
Location: Selinsgrove,
Elevation: 449 ft
Nearby Weather Stations

Elev 449 ft 40.82 °N, 76.86 °W | Updated 1 hour ago

Overcast
Overcast
56 °F
Feels Like 56 °F
N
0
Wind Variable Wind from North

Today
High -- | Low -- °F
--% Chance of Precip.
Yesterday
High -- | Low -- °F
Precip. -- in
6:00 AM 8:12 PM
Waning Gibbous, 90% visible
Pressure 30.23 in
Visibility 4.0 miles
Clouds Overcast 3700 ft
Dew Point 55 °F
Humidity 97%
Rainfall 0.00 in
Snow Depth Not available.
UV 0 out of 12
Pollen 4.90 out of 12
Air Quality Not available.
Flu Activity Sporadic
METAR KSEG 070553Z AUTO 00000KT 4SM BR OVC037 13/13 A3023 RMK AO2 SLP237 T01330128 10156 20117 58002

More Conditions Fewer Conditions

Pressure 30.23 in
Visibility 4.0 miles
Clouds Overcast 3700 ft
Dew Point 55 °F
Humidity 97%
Rainfall 0.00 in
Snow Depth Not available.
UV 0 out of 12
Pollen 4.90 out of 12
Air Quality Not available.
Flu Activity Sporadic
METAR KSEG 070553Z AUTO 00000KT 4SM BR OVC037 13/13 A3023 RMK AO2 SLP237 T01330128 10156 20117 58002

More Conditions Fewer Conditions

10-Day Weather Forecast

Almanac

Astronomy

May. 07, 2015 Rise Set
Actual Time
Civil Twilight
Nautical Twilight
Astronomical Twilight
Moon
Length of Visible Light
Length of Day
Tomorrow will be .
, % of the Moon is Illuminated

Today's Extremes

State Highs State Lows

Community

WunderPhotos

Upload Photos

1,819,126 photos uploaded!

WunderBlogs® & News

Nearby

Air Quality

  Air Quality AQ Index Pollutant
Not available.

Snow Depth

Station Depth Elevation

Earthquake Activity

City Distance Mag. Time & Date
Minimum magnitude displayed is 2.5.

Coastal Water Temperatures

Place Temperature

Stations

Nearby Weather Stations

Station Location Temp. Windchill Dew Point Humidity Wind Precip. Elev Updated Type